Time;durP1;ratioP1;P1;durP2;ratioP2;P2;SDS_P1;SDS_P2;PMS_P1;PMS_P2;Temp;Humidity;BMP_temperature;BMP_pressure;BME280_temperature;BME280_humidity;BME280_pressure;Samples;Min_cycle;Max_cycle;Signal;HPM_P1;HPM_P2
2022/06/12 12:07:35;;;;;;;3.65;2.20;;;34.80;24.80;;;;;;5181096;23;20904;-46
2022/06/12 12:10:19;;;;;;;9.87;3.03;;;35.00;25.50;;;;;;4953652;28;20216;-46
2022/06/12 12:12:53;;;;;;;7.83;2.50;;;34.90;25.50;;;;;;4953644;29;20428;-47
2022/06/12 12:15:33;;;;;;;6.30;4.03;;;34.90;24.40;;;;;;4945770;29;20746;-48
2022/06/12 12:18:02;;;;;;;7.77;2.77;;;34.90;25.20;;;;;;4930106;29;20980;-48
2022/06/12 12:20:33;;;;;;;6.30;2.73;;;34.90;24.00;;;;;;4930083;29;20431;-47
2022/06/12 12:23:02;;;;;;;4.97;2.77;;;34.90;25.00;;;;;;4906083;29;20420;-46
2022/06/12 12:25:34;;;;;;;2.63;2.13;;;34.90;25.60;;;;;;4915192;29;20445;-46
2022/06/12 12:28:06;;;;;;;2.73;1.93;;;34.90;25.10;;;;;;4928614;29;20412;-45
2022/06/12 12:30:38;;;;;;;4.27;2.27;;;34.80;24.70;;;;;;4918589;29;20781;-46
2022/06/12 12:33:09;;;;;;;2.63;1.90;;;34.80;24.30;;;;;;4928268;29;20902;-45
2022/06/12 12:41:18;;;;;;;2.93;2.00;;;34.60;24.70;;;;;;4928242;29;20461;-47
2022/06/12 12:43:56;;;;;;;3.73;2.87;;;34.60;24.90;;;;;;4926296;29;20413;-46
2022/06/12 12:46:38;;;;;;;2.20;1.80;;;34.80;25.70;;;;;;4917803;29;20449;-46
2022/06/12 12:49:04;;;;;;;6.07;3.07;;;34.90;25.10;;;;;;4928221;29;20426;-46
2022/06/12 12:51:36;;;;;;;2.80;1.90;;;34.90;25.20;;;;;;4922733;29;20527;-47
2022/06/12 12:54:20;;;;;;;2.80;2.40;;;35.00;25.00;;;;;;4920461;29;20460;-47
2022/06/12 12:56:59;;;;;;;3.37;2.10;;;34.90;23.80;;;;;;4918351;29;20451;-46
2022/06/12 12:59:42;;;;;;;4.00;2.00;;;34.90;24.30;;;;;;4934112;29;20448;-47
2022/06/12 13:02:32;;;;;;;3.33;2.40;;;34.90;24.30;;;;;;4919819;29;20513;-47
2022/06/12 13:05:01;;;;;;;2.87;1.80;;;35.00;25.30;;;;;;4915309;29;20416;-47
2022/06/12 13:07:50;;;;;;;2.60;2.00;;;35.00;25.10;;;;;;4924012;29;20448;-47
2022/06/12 13:10:51;;;;;;;3.40;2.03;;;35.00;24.70;;;;;;4933931;29;20433;-46
2022/06/12 13:13:57;;;;;;;2.43;1.73;;;34.90;23.40;;;;;;4919591;29;20802;-46
2022/06/12 13:16:41;;;;;;;2.30;1.90;;;34.80;24.20;;;;;;4917782;29;21028;-46
2022/06/12 13:19:25;;;;;;;3.10;1.60;;;34.80;24.00;;;;;;4936924;29;20468;-46
2022/06/12 13:22:39;;;;;;;2.43;1.90;;;34.80;24.10;;;;;;4925135;29;20417;-46
2022/06/12 13:25:10;;;;;;;2.20;1.80;;;34.80;23.60;;;;;;4865943;29;20736;-46
2022/06/12 13:27:52;;;;;;;4.37;2.50;;;34.70;23.80;;;;;;4916362;29;20476;-46
2022/06/12 13:30:25;;;;;;;4.30;2.07;;;34.80;24.70;;;;;;4933823;29;20860;-46
2022/06/12 13:32:51;;;;;;;2.60;2.10;;;34.80;23.60;;;;;;4922201;29;20435;-46
2022/06/12 13:35:21;;;;;;;2.30;1.80;;;34.80;24.60;;;;;;4929373;29;20470;-46
2022/06/12 13:37:50;;;;;;;3.10;2.30;;;34.90;24.70;;;;;;4929529;29;20448;-47
2022/06/12 13:40:23;;;;;;;4.00;2.47;;;34.90;23.70;;;;;;4930977;29;20453;-46
2022/06/12 13:42:49;;;;;;;3.23;2.40;;;34.90;24.60;;;;;;4934138;29;20435;-46
2022/06/12 13:45:21;;;;;;;2.93;2.03;;;34.90;25.10;;;;;;4936748;29;20417;-46
2022/06/12 13:47:47;;;;;;;3.27;1.90;;;34.90;24.60;;;;;;4920900;29;20662;-46
2022/06/12 13:50:22;;;;;;;2.73;1.80;;;34.90;24.00;;;;;;4930949;29;20509;-46
2022/06/12 13:52:48;;;;;;;3.67;1.60;;;34.90;24.40;;;;;;4927975;29;20929;-46
2022/06/12 13:55:32;;;;;;;2.87;1.90;;;34.90;23.80;;;;;;4923084;29;20458;-44
2022/06/12 13:58:47;;;;;;;3.20;1.70;;;34.80;24.10;;;;;;4921546;29;20232;-44
2022/06/12 14:01:22;;;;;;;3.93;2.50;;;34.90;24.60;;;;;;4920530;29;20524;-45
2022/06/12 14:04:04;;;;;;;5.60;2.30;;;35.00;23.80;;;;;;4933195;29;20401;-44
2022/06/12 14:06:36;;;;;;;6.00;1.90;;;35.00;23.80;;;;;;4925367;29;20484;-44
2022/06/12 14:09:07;;;;;;;2.80;2.50;;;35.00;24.00;;;;;;4935775;29;20955;-45
2022/06/12 14:11:35;;;;;;;3.90;3.50;;;35.00;24.40;;;;;;4936416;29;20443;-45
2022/06/12 14:14:01;;;;;;;4.27;1.93;;;35.00;23.90;;;;;;4932544;29;20426;-45
2022/06/12 14:16:30;;;;;;;2.60;1.80;;;35.00;23.20;;;;;;4924618;29;20805;-45
2022/06/12 14:18:57;;;;;;;2.20;1.30;;;35.00;23.10;;;;;;4925217;29;20461;-45
2022/06/12 14:21:29;;;;;;;2.90;1.80;;;35.00;23.40;;;;;;4931430;29;20853;-44
2022/06/12 14:24:25;;;;;;;1.90;1.20;;;35.00;22.90;;;;;;4919081;29;20417;-44
2022/06/12 14:26:52;;;;;;;2.40;2.10;;;35.10;22.10;;;;;;4924252;29;20437;-45
2022/06/12 14:29:35;;;;;;;9.63;1.93;;;35.00;23.00;;;;;;4929197;29;20989;-45
2022/06/12 14:32:17;;;;;;;2.10;1.40;;;35.00;22.80;;;;;;4919843;29;20429;-44
2022/06/12 14:35:05;;;;;;;2.40;1.67;;;35.00;22.60;;;;;;4925159;29;20419;-45
2022/06/12 14:37:31;;;;;;;2.83;2.20;;;34.90;21.70;;;;;;4925931;29;20483;-44
2022/06/12 14:40:14;;;;;;;5.30;4.70;;;34.90;21.20;;;;;;4932223;29;20988;-45
2022/06/12 14:42:40;;;;;;;3.40;2.53;;;34.90;21.40;;;;;;4926216;29;20184;-45
2022/06/12 14:45:12;;;;;;;8.63;2.67;;;34.90;22.00;;;;;;4923061;29;20413;-45
2022/06/12 14:47:38;;;;;;;20.03;18.30;;;34.90;21.40;;;;;;4933014;29;20308;-47
2022/06/12 14:50:14;;;;;;;7.90;6.53;;;34.80;21.80;;;;;;4931348;29;21013;-45
2022/06/12 14:52:40;;;;;;;8.10;5.80;;;34.80;20.70;;;;;;4926271;29;20187;-45
2022/06/12 14:55:06;;;;;;;3.17;2.50;;;34.80;20.80;;;;;;4923238;29;20533;-45
2022/06/12 14:57:32;;;;;;;2.30;1.33;;;34.80;21.30;;;;;;4932367;29;20197;-46
2022/06/12 15:00:00;;;;;;;4.57;1.67;;;34.90;20.80;;;;;;4920647;29;20483;-45
2022/06/12 15:02:29;;;;;;;2.40;1.73;;;34.80;18.50;;;;;;4928292;29;20432;-46
2022/06/12 15:04:56;;;;;;;4.63;2.80;;;34.60;19.80;;;;;;4927616;29;20416;-44
2022/06/12 15:07:22;;;;;;;10.37;1.90;;;34.60;20.50;;;;;;4920602;29;20517;-46
2022/06/12 15:09:47;;;;;;;3.27;2.00;;;34.60;21.30;;;;;;4932019;29;20479;-46
2022/06/12 15:12:18;;;;;;;2.80;1.47;;;34.70;21.00;;;;;;4921911;29;20453;-46
2022/06/12 15:14:44;;;;;;;3.30;2.20;;;34.60;19.90;;;;;;4925696;29;20186;-46
2022/06/12 15:17:18;;;;;;;3.17;2.63;;;34.60;20.40;;;;;;4928346;29;20944;-45
2022/06/12 15:19:45;;;;;;;4.90;3.27;;;34.60;19.70;;;;;;4933564;29;20462;-45
2022/06/12 15:22:20;;;;;;;8.33;3.93;;;34.50;19.70;;;;;;4929990;29;20843;-45
2022/06/12 15:24:47;;;;;;;3.20;2.30;;;34.40;19.90;;;;;;4926032;29;20423;-45
2022/06/12 15:29:58;;;;;;;5.00;3.53;;;34.20;20.20;;;;;;4920073;29;20474;-45
2022/06/12 15:32:30;;;;;;;3.40;2.50;;;34.20;20.80;;;;;;4928123;29;20890;-46
2022/06/12 15:34:57;;;;;;;3.43;2.80;;;34.10;19.50;;;;;;4927208;29;20205;-46
2022/06/12 15:37:23;;;;;;;3.97;2.73;;;34.10;19.90;;;;;;4934436;29;20453;-46
2022/06/12 15:39:50;;;;;;;4.00;2.30;;;34.10;20.80;;;;;;4931994;29;20511;-46
2022/06/12 15:42:18;;;;;;;3.07;2.07;;;34.10;21.20;;;;;;4922119;29;20471;-45
2022/06/12 15:44:44;;;;;;;4.63;2.20;;;34.10;20.80;;;;;;4925195;29;20429;-45
2022/06/12 15:47:11;;;;;;;2.83;2.10;;;34.10;21.00;;;;;;4928535;29;20455;-46
2022/06/12 15:49:37;;;;;;;3.80;2.63;;;34.10;21.40;;;;;;4919186;29;20418;-45
2022/06/12 15:52:04;;;;;;;5.80;2.30;;;34.10;20.00;;;;;;4930412;29;20530;-45
2022/06/12 15:54:30;;;;;;;11.00;3.70;;;34.00;20.80;;;;;;4923512;29;20920;-46
2022/06/12 15:56:57;;;;;;;5.90;3.10;;;34.00;21.00;;;;;;4923063;29;20442;-46
2022/06/12 15:59:35;;;;;;;3.00;2.10;;;34.00;21.00;;;;;;4930336;29;20513;-46
2022/06/12 16:02:12;;;;;;;3.17;2.40;;;34.00;20.50;;;;;;4933229;29;20425;-45
2022/06/12 16:04:38;;;;;;;3.80;1.70;;;33.90;19.60;;;;;;4933659;29;20500;-46
2022/06/12 16:07:03;;;;;;;4.53;2.73;;;33.80;19.60;;;;;;4933530;29;20850;-46
2022/06/12 16:09:29;;;;;;;2.13;1.30;;;33.70;20.00;;;;;;4933995;29;20787;-46
2022/06/12 16:11:55;;;;;;;1.90;1.07;;;33.60;20.00;;;;;;4933361;29;20207;-45
2022/06/12 16:14:21;;;;;;;2.30;1.10;;;33.50;20.20;;;;;;4934596;29;20197;-45
2022/06/12 16:16:47;;;;;;;2.10;1.47;;;33.50;20.30;;;;;;4934353;29;20448;-46
2022/06/12 16:19:13;;;;;;;2.20;1.50;;;33.40;21.00;;;;;;4934691;29;20468;-45
2022/06/12 16:21:39;;;;;;;3.20;1.90;;;33.40;21.00;;;;;;4934886;29;20447;-44
2022/06/12 16:24:05;;;;;;;2.53;1.43;;;33.40;21.10;;;;;;4934623;29;20181;-45
2022/06/12 16:26:31;;;;;;;2.17;1.47;;;33.40;21.60;;;;;;4934522;29;20197;-43
2022/06/12 16:28:57;;;;;;;2.57;1.70;;;33.40;20.60;;;;;;4917766;29;20417;-45
2022/06/12 16:31:23;;;;;;;2.60;1.40;;;33.40;21.50;;;;;;4934425;29;20502;-45
2022/06/12 16:33:49;;;;;;;2.20;1.47;;;33.40;21.70;;;;;;4934622;29;20417;-45
2022/06/12 16:36:15;;;;;;;3.83;1.70;;;33.30;21.80;;;;;;4934227;29;20902;-45
2022/06/12 16:38:41;;;;;;;2.07;1.20;;;33.30;21.60;;;;;;4934291;29;20469;-45
2022/06/12 16:41:07;;;;;;;2.03;1.53;;;33.20;21.50;;;;;;4934392;29;20496;-45
2022/06/12 16:43:33;;;;;;;2.10;1.43;;;33.10;22.20;;;;;;4934675;29;20421;-45
2022/06/12 16:45:59;;;;;;;2.40;1.77;;;33.10;22.40;;;;;;4933998;29;20865;-45
2022/06/12 16:48:26;;;;;;;2.57;1.53;;;33.00;22.20;;;;;;4934285;29;20929;-45
2022/06/12 16:50:52;;;;;;;18.77;12.70;;;32.90;20.90;;;;;;4934373;29;20661;-45
2022/06/12 16:53:19;;;;;;;4.60;3.70;;;32.90;20.60;;;;;;4936904;29;20417;-45
2022/06/12 16:55:44;;;;;;;3.00;2.33;;;32.80;20.90;;;;;;4937942;29;20442;-45
2022/06/12 16:58:12;;;;;;;2.70;1.70;;;32.70;21.30;;;;;;4937863;29;20428;-45
2022/06/12 17:00:39;;;;;;;2.53;1.97;;;32.70;21.60;;;;;;4937917;29;20186;-45
2022/06/12 17:03:05;;;;;;;2.57;1.60;;;32.60;22.00;;;;;;4937803;29;20469;-46
2022/06/12 17:05:32;;;;;;;2.30;1.53;;;32.60;22.00;;;;;;4937456;29;20421;-45
2022/06/12 17:07:59;;;;;;;2.17;1.40;;;32.60;22.30;;;;;;4937429;29;20518;-45
2022/06/12 17:10:34;;;;;;;2.40;1.43;;;33.00;22.60;;;;;;4937891;29;20476;-45
2022/06/12 17:13:01;;;;;;;4.23;2.77;;;32.50;22.30;;;;;;4937602;29;20414;-45
2022/06/12 17:15:28;;;;;;;3.27;2.77;;;32.40;22.50;;;;;;4937441;29;20422;-45
2022/06/12 17:20:44;;;;;;;3.63;1.90;;;32.30;22.20;;;;;;4937864;29;20453;-45
2022/06/12 17:23:25;;;;;;;3.13;1.53;;;32.30;22.30;;;;;;4937552;29;20452;-45
2022/06/12 17:25:51;;;;;;;2.40;1.80;;;32.30;22.40;;;;;;4937147;29;20954;-45
2022/06/12 17:28:19;;;;;;;1.97;1.30;;;32.20;22.50;;;;;;4937610;29;20408;-45
2022/06/12 17:30:46;;;;;;;2.97;1.87;;;32.10;22.50;;;;;;4937354;29;20480;-45
2022/06/12 17:33:14;;;;;;;4.33;2.03;;;31.90;22.40;;;;;;4937424;29;20401;-45
2022/06/12 17:35:41;;;;;;;25.60;17.17;;;31.80;22.90;;;;;;4936743;29;20401;-45
2022/06/12 17:38:07;;;;;;;3.27;2.60;;;31.80;22.00;;;;;;4937275;29;20468;-44
2022/06/12 17:40:35;;;;;;;4.90;3.30;;;31.60;22.00;;;;;;4937126;29;20416;-45
2022/06/12 17:43:01;;;;;;;5.73;1.90;;;31.60;22.50;;;;;;4937009;29;20390;-45
2022/06/12 17:45:28;;;;;;;2.53;1.90;;;31.50;22.90;;;;;;4936759;29;20893;-45
2022/06/12 17:47:55;;;;;;;5.20;1.80;;;31.40;23.10;;;;;;4936860;29;20934;-45
2022/06/12 17:50:22;;;;;;;2.47;1.63;;;31.30;23.20;;;;;;4937069;29;20909;-45
2022/06/12 17:52:49;;;;;;;2.67;1.70;;;31.20;23.40;;;;;;4937041;29;20967;-45
2022/06/12 17:55:15;;;;;;;2.53;1.00;;;31.20;23.30;;;;;;4936789;29;20773;-45
2022/06/12 17:57:42;;;;;;;3.43;1.80;;;31.10;23.30;;;;;;4936610;29;20436;-45
2022/06/12 18:00:09;;;;;;;2.70;1.90;;;31.10;23.60;;;;;;4936800;29;20464;-45
2022/06/12 18:02:36;;;;;;;1.90;1.23;;;31.00;23.40;;;;;;4936913;29;20406;-45
2022/06/12 18:05:04;;;;;;;3.53;2.70;;;30.80;23.10;;;;;;4935613;29;20834;-45
2022/06/12 18:07:31;;;;;;;2.10;1.30;;;30.80;23.40;;;;;;4936327;29;20519;-45
2022/06/12 18:09:57;;;;;;;2.27;1.50;;;30.70;23.40;;;;;;4936515;29;20805;-46
2022/06/12 18:12:24;;;;;;;2.67;1.73;;;30.60;23.50;;;;;;4936245;29;20418;-46
2022/06/12 18:20:19;;;;;;;2.53;1.60;;;30.50;24.20;;;;;;4936452;29;20872;-46
2022/06/12 18:22:45;;;;;;;1.97;1.17;;;30.40;24.50;;;;;;4919361;29;20452;-46
2022/06/12 18:25:12;;;;;;;2.67;1.63;;;30.30;24.50;;;;;;4936244;29;20440;-46
2022/06/12 18:27:38;;;;;;;3.50;1.80;;;30.30;24.70;;;;;;4936018;29;20456;-47
2022/06/12 18:30:06;;;;;;;4.27;1.90;;;30.20;24.50;;;;;;4936474;29;20421;-47
2022/06/12 18:32:32;;;;;;;2.73;1.77;;;30.20;24.60;;;;;;4936188;29;20782;-46
2022/06/12 18:34:58;;;;;;;5.93;2.10;;;30.10;24.70;;;;;;4936319;29;20409;-46
2022/06/12 18:37:25;;;;;;;2.60;2.00;;;30.00;24.90;;;;;;4917843;29;20441;-46
2022/06/12 18:39:51;;;;;;;3.57;1.90;;;30.00;25.30;;;;;;4935778;29;20469;-46
2022/06/12 18:42:17;;;;;;;2.47;1.73;;;29.90;25.30;;;;;;4936099;29;20413;-46
2022/06/12 18:44:44;;;;;;;2.90;2.27;;;29.90;25.40;;;;;;4935931;29;20414;-47
2022/06/12 18:47:10;;;;;;;3.30;1.30;;;29.70;25.60;;;;;;4935672;29;20468;-46
2022/06/12 18:49:42;;;;;;;3.83;1.87;;;29.70;25.80;;;;;;4935846;29;20457;-45
2022/06/12 18:52:08;;;;;;;5.80;1.90;;;29.60;26.10;;;;;;4935773;29;20823;-46
2022/06/12 18:54:35;;;;;;;2.37;1.60;;;29.50;26.40;;;;;;4935756;29;21082;-46
2022/06/12 18:57:01;;;;;;;2.67;1.80;;;29.40;26.20;;;;;;4935426;29;20435;-46
2022/06/12 18:59:28;;;;;;;3.80;1.87;;;29.30;26.50;;;;;;4918597;29;20539;-46
2022/06/12 19:01:55;;;;;;;14.60;2.47;;;29.30;27.00;;;;;;4935669;29;20408;-46
2022/06/12 19:04:22;;;;;;;9.73;6.70;;;29.20;27.10;;;;;;4935522;29;20495;-45
2022/06/12 19:06:49;;;;;;;5.03;2.70;;;29.10;28.00;;;;;;4935363;29;20425;-46
2022/06/12 19:09:15;;;;;;;4.40;2.90;;;29.10;27.80;;;;;;4935450;29;20439;-45
2022/06/12 19:11:41;;;;;;;12.30;5.70;;;28.90;27.50;;;;;;4935549;29;20914;-46
2022/06/12 19:14:11;;;;;;;7.70;5.30;;;28.80;27.80;;;;;;4935438;29;20790;-45
2022/06/12 19:16:40;;;;;;;4.60;2.67;;;28.60;27.80;;;;;;4918261;29;20438;-45
2022/06/12 19:19:07;;;;;;;2.97;2.00;;;28.60;27.80;;;;;;4935344;29;20463;-45
2022/06/12 19:21:34;;;;;;;3.37;2.17;;;28.50;28.00;;;;;;4935497;29;20534;-45
2022/06/12 19:24:01;;;;;;;5.63;2.97;;;28.40;28.40;;;;;;4935216;29;20426;-45
2022/06/12 19:26:29;;;;;;;4.23;2.27;;;28.40;28.90;;;;;;4935203;29;20438;-45
2022/06/12 19:28:56;;;;;;;5.57;2.60;;;28.30;29.40;;;;;;4935456;29;20452;-45
2022/06/12 19:31:25;;;;;;;6.47;2.60;;;28.20;29.80;;;;;;4935109;29;20515;-45
2022/06/12 19:33:53;;;;;;;7.57;3.80;;;28.10;30.30;;;;;;4935159;29;20433;-46
2022/06/12 19:36:21;;;;;;;4.03;3.60;;;28.00;30.30;;;;;;4934967;29;20441;-44
2022/06/12 19:38:47;;;;;;;8.30;5.47;;;27.90;29.90;;;;;;4935067;29;20457;-45
2022/06/12 19:41:14;;;;;;;14.53;10.20;;;27.80;30.20;;;;;;4934631;29;20417;-45
2022/06/12 19:43:41;;;;;;;9.53;5.93;;;27.70;30.30;;;;;;4934859;29;20424;-45
2022/06/12 19:46:08;;;;;;;8.00;4.83;;;27.70;30.60;;;;;;4934620;29;20441;-45
2022/06/12 19:48:36;;;;;;;4.03;3.03;;;27.60;30.60;;;;;;4934935;29;20415;-45
2022/06/12 19:51:03;;;;;;;3.43;2.83;;;27.60;30.40;;;;;;4934656;29;20441;-45
2022/06/12 19:53:29;;;;;;;56.97;7.40;;;27.60;30.40;;;;;;4934737;29;20413;-45
2022/06/12 19:55:55;;;;;;;12.00;3.60;;;27.50;30.90;;;;;;4934517;29;20791;-45
2022/06/12 19:58:22;;;;;;;11.37;4.30;;;27.50;31.30;;;;;;4934767;29;20516;-45
2022/06/12 20:00:48;;;;;;;20.93;7.00;;;27.30;31.30;;;;;;4934847;29;20460;-45
2022/06/12 20:03:14;;;;;;;12.47;5.53;;;27.30;31.60;;;;;;4932321;29;20445;-45
2022/06/12 20:08:26;;;;;;;3.40;2.33;;;27.10;31.80;;;;;;4933582;29;20959;-46
2022/06/12 20:10:52;;;;;;;2.87;2.20;;;27.00;31.80;;;;;;4934038;29;20425;-46
2022/06/12 20:13:20;;;;;;;7.20;3.17;;;27.00;32.10;;;;;;4933694;29;20965;-46
2022/06/12 20:15:47;;;;;;;3.53;2.37;;;27.00;32.00;;;;;;4933751;29;20481;-47
2022/06/12 20:18:17;;;;;;;3.90;2.63;;;26.90;31.50;;;;;;4934116;29;20976;-46
2022/06/12 20:21:07;;;;;;;4.70;3.03;;;26.90;32.10;;;;;;4934784;29;20417;-46
2022/06/12 20:23:37;;;;;;;4.00;2.90;;;26.80;32.20;;;;;;4934618;29;20897;-45
2022/06/12 20:26:04;;;;;;;3.40;2.90;;;26.70;32.40;;;;;;4934271;29;20469;-46
2022/06/12 20:28:31;;;;;;;4.30;2.70;;;26.70;32.90;;;;;;4937739;29;20946;-46
2022/06/12 20:30:59;;;;;;;3.73;3.00;;;26.60;32.80;;;;;;4938454;29;20417;-46
2022/06/12 20:33:28;;;;;;;5.97;3.03;;;26.60;32.60;;;;;;4938601;29;20409;-46
2022/06/12 20:35:55;;;;;;;4.60;2.60;;;26.50;32.80;;;;;;4938243;29;20429;-46
2022/06/12 20:38:21;;;;;;;4.23;2.70;;;26.50;33.10;;;;;;4938237;29;20413;-46
2022/06/12 20:40:51;;;;;;;3.93;3.30;;;26.50;32.80;;;;;;4938271;29;20424;-46
2022/06/12 20:43:22;;;;;;;4.23;3.07;;;26.40;33.20;;;;;;4938284;29;20500;-46
2022/06/12 20:45:48;;;;;;;5.87;3.03;;;26.40;33.30;;;;;;4937999;29;20934;-46
2022/06/12 20:48:14;;;;;;;4.07;2.90;;;26.40;33.20;;;;;;4938402;29;20405;-46
2022/06/12 20:50:40;;;;;;;3.77;2.80;;;26.30;33.50;;;;;;4938441;29;20188;-45
2022/06/12 20:53:06;;;;;;;4.10;3.70;;;26.30;33.60;;;;;;4938411;29;20807;-46
2022/06/12 20:55:32;;;;;;;5.70;3.40;;;26.30;33.70;;;;;;4937945;29;20421;-45
2022/06/12 20:57:58;;;;;;;5.13;3.30;;;26.20;33.20;;;;;;4938011;29;20545;-46
2022/06/12 21:00:23;;;;;;;4.83;3.10;;;26.20;33.20;;;;;;4938031;29;20468;-46
2022/06/12 21:02:49;;;;;;;6.67;3.80;;;26.20;33.20;;;;;;4937961;29;20196;-46
2022/06/12 21:05:15;;;;;;;3.73;2.90;;;26.10;33.50;;;;;;4937796;29;20460;-45
2022/06/12 21:07:41;;;;;;;4.53;3.63;;;26.10;33.40;;;;;;4937845;29;20253;-46
2022/06/12 21:10:07;;;;;;;8.40;4.03;;;26.00;34.00;;;;;;4937857;29;20680;-46
2022/06/12 21:12:33;;;;;;;4.67;3.20;;;25.90;33.60;;;;;;4938102;29;20181;-46
2022/06/12 21:14:58;;;;;;;4.53;3.40;;;25.80;33.60;;;;;;4937733;29;20826;-46
2022/06/12 21:17:25;;;;;;;6.10;4.10;;;25.80;33.80;;;;;;4937741;29;20288;-45
2022/06/12 21:19:51;;;;;;;5.53;3.70;;;25.70;33.90;;;;;;4937845;29;20492;-46
2022/06/12 21:22:17;;;;;;;3.97;3.30;;;25.70;34.20;;;;;;4937836;29;20424;-46
2022/06/12 21:24:43;;;;;;;6.30;4.60;;;25.60;34.30;;;;;;4937549;29;20778;-46
2022/06/12 21:27:09;;;;;;;4.93;4.03;;;25.50;34.60;;;;;;4937367;29;20836;-46
2022/06/12 21:29:35;;;;;;;4.77;3.77;;;25.50;34.70;;;;;;4937504;29;21130;-46
2022/06/12 21:32:01;;;;;;;4.87;4.10;;;25.40;34.70;;;;;;4937491;29;20500;-46
2022/06/12 21:34:27;;;;;;;4.23;3.67;;;25.40;34.70;;;;;;4937463;29;20212;-46
2022/06/12 21:36:52;;;;;;;5.30;3.30;;;25.30;35.00;;;;;;4937402;29;20228;-46
2022/06/12 21:39:18;;;;;;;4.00;3.30;;;25.30;34.80;;;;;;4936952;29;20213;-46
2022/06/12 21:41:44;;;;;;;5.00;4.07;;;25.20;35.40;;;;;;4937324;29;20177;-47
2022/06/12 21:44:10;;;;;;;4.77;3.70;;;25.10;35.50;;;;;;4937304;29;20185;-46
2022/06/12 21:46:37;;;;;;;4.90;3.40;;;25.10;35.70;;;;;;4937249;29;20193;-46
2022/06/12 21:49:03;;;;;;;4.50;3.63;;;25.00;35.70;;;;;;4937426;29;20447;-46
2022/06/12 21:56:58;;;;;;;4.20;3.23;;;24.80;35.90;;;;;;4937090;29;20842;-46
2022/06/12 21:59:24;;;;;;;3.50;3.20;;;24.80;35.70;;;;;;4937163;29;20452;-47
2022/06/12 22:01:50;;;;;;;3.60;3.13;;;24.80;36.10;;;;;;4936971;29;20420;-46
2022/06/12 22:04:16;;;;;;;3.03;2.47;;;24.70;36.30;;;;;;4936904;29;20212;-46
2022/06/12 22:06:42;;;;;;;3.40;2.93;;;24.70;36.20;;;;;;4936628;29;20441;-46
2022/06/12 22:09:09;;;;;;;9.97;3.30;;;24.70;36.60;;;;;;4936667;29;20528;-46
2022/06/12 22:11:35;;;;;;;4.27;3.10;;;24.60;36.40;;;;;;4937079;29;20774;-46
2022/06/12 22:14:01;;;;;;;4.63;3.07;;;24.60;36.70;;;;;;4936929;29;20565;-46
2022/06/12 22:16:27;;;;;;;3.90;2.73;;;24.60;36.70;;;;;;4936625;29;20437;-46
2022/06/12 22:18:53;;;;;;;5.30;3.30;;;24.60;36.30;;;;;;4936553;29;20464;-46
2022/06/12 22:21:19;;;;;;;3.60;2.43;;;24.60;36.40;;;;;;4936662;29;20181;-46
2022/06/12 22:23:45;;;;;;;3.17;2.77;;;24.60;36.70;;;;;;4936502;29;20263;-46
2022/06/12 22:26:10;;;;;;;4.43;2.97;;;24.50;36.40;;;;;;4936288;29;20205;-45
2022/06/12 22:28:36;;;;;;;3.77;2.53;;;24.50;36.70;;;;;;4936405;29;20838;-46
2022/06/12 22:31:02;;;;;;;4.30;2.90;;;24.50;37.00;;;;;;4936742;29;20811;-46
2022/06/12 22:33:28;;;;;;;5.80;2.60;;;24.50;36.70;;;;;;4936441;29;20173;-46
2022/06/12 22:35:54;;;;;;;5.63;5.13;;;24.50;36.70;;;;;;4936197;29;20445;-46
2022/06/12 22:38:20;;;;;;;4.10;2.70;;;24.50;36.30;;;;;;4936162;29;20661;-46
2022/06/12 22:40:45;;;;;;;2.90;2.10;;;24.50;36.20;;;;;;4936217;29;20185;-46
2022/06/12 22:43:11;;;;;;;2.80;2.43;;;24.50;36.20;;;;;;4936356;29;20185;-46
2022/06/12 22:45:37;;;;;;;4.63;3.13;;;24.50;35.90;;;;;;4936183;29;20658;-45
2022/06/12 22:48:03;;;;;;;2.40;2.00;;;24.50;36.20;;;;;;4936099;29;20660;-45
2022/06/12 22:50:29;;;;;;;2.47;1.83;;;24.60;36.00;;;;;;4935772;29;20260;-45
2022/06/12 22:52:55;;;;;;;2.80;2.20;;;24.50;36.00;;;;;;4936074;29;20508;-45
2022/06/12 22:55:21;;;;;;;2.83;2.40;;;24.50;36.00;;;;;;4935912;29;20422;-45
2022/06/12 22:57:46;;;;;;;4.37;2.73;;;24.50;36.20;;;;;;4935621;29;20457;-45
2022/06/12 23:00:18;;;;;;;3.20;2.50;;;24.50;35.90;;;;;;4935800;29;20866;-46
2022/06/12 23:02:45;;;;;;;3.10;2.53;;;24.40;36.10;;;;;;4935848;29;20796;-45
2022/06/12 23:05:11;;;;;;;4.50;2.43;;;24.40;36.10;;;;;;4935897;29;20614;-45
2022/06/12 23:07:37;;;;;;;3.33;2.17;;;24.30;36.20;;;;;;4935463;29;20483;-46
2022/06/12 23:10:04;;;;;;;2.73;2.27;;;24.30;36.30;;;;;;4935628;29;20428;-45
2022/06/12 23:12:29;;;;;;;4.10;2.50;;;24.20;36.40;;;;;;4935547;29;20417;-45
2022/06/12 23:14:56;;;;;;;3.33;2.80;;;24.20;36.40;;;;;;4935907;29;20420;-45
2022/06/12 23:17:23;;;;;;;5.13;2.87;;;24.10;36.50;;;;;;4935533;29;20205;-45
2022/06/12 23:19:49;;;;;;;5.23;3.00;;;24.10;36.60;;;;;;4935780;29;20504;-45
2022/06/12 23:22:15;;;;;;;4.10;2.53;;;24.00;36.50;;;;;;4935444;29;20409;-45
2022/06/12 23:24:40;;;;;;;4.00;2.63;;;24.00;36.70;;;;;;4935536;29;20416;-44
2022/06/12 23:27:06;;;;;;;3.70;2.50;;;23.90;36.50;;;;;;4935187;29;20425;-45
2022/06/12 23:29:32;;;;;;;7.97;3.70;;;23.90;36.50;;;;;;4935667;29;20229;-45
2022/06/12 23:31:58;;;;;;;7.43;2.13;;;23.90;36.60;;;;;;4935325;29;20185;-45
2022/06/12 23:34:24;;;;;;;4.93;2.30;;;23.90;36.70;;;;;;4935604;29;20488;-45
2022/06/12 23:36:50;;;;;;;3.30;2.27;;;23.80;36.80;;;;;;4935223;29;20822;-45
2022/06/12 23:39:16;;;;;;;2.80;2.00;;;23.80;36.70;;;;;;4935192;29;20481;-46
2022/06/12 23:41:42;;;;;;;4.47;3.60;;;23.70;36.70;;;;;;4935175;29;20185;-45
2022/06/12 23:44:08;;;;;;;3.07;2.00;;;23.70;36.70;;;;;;4935139;29;20412;-45
2022/06/12 23:46:36;;;;;;;7.23;3.57;;;23.70;36.80;;;;;;4934810;29;20980;-45
2022/06/12 23:49:05;;;;;;;2.30;2.03;;;23.60;36.90;;;;;;4935348;29;20417;-45
2022/06/12 23:51:33;;;;;;;4.33;2.17;;;23.60;36.80;;;;;;4935001;29;20417;-46
2022/06/12 23:53:59;;;;;;;3.40;2.40;;;23.50;36.80;;;;;;4934998;29;20409;-45
2022/06/12 23:56:29;;;;;;;4.87;2.47;;;23.50;36.90;;;;;;4935016;29;20488;-45
2022/06/12 23:58:54;;;;;;;4.17;2.80;;;23.40;36.80;;;;;;4935166;29;20456;-45
